Baton Rouge Metropolitan, Ryan Field
KBTR : now visible

Airfield :











YOU CAN JOIN US ON...

 
LOGIN :

Register | Disclaimer

   EN    FR    IT 

 









Legend :    VFR   Marginal VFR   IFR   Intensive IFR   Very Intensive IFR
Visi :
Ceiling :
>= 8 km
>= 3000ft
5 to 8 km
1000 to 3000 ft
1500m to 5 km
500 to 1000 ft
800 to 1500m
200 to 500 ft
< 800m
< 200 ft
Symbols :   Thunderstorms  Fog  Heavy snow  Heavy precipitations  Wind > 20 kt







- Airport Elevation : 70 ft
- IATA code : BTR


KBTR - Baton Rouge Metropolitan, Ryan Field

CURRENT METAR :
  • 160553Z AUTO 00000KT 10SM CLR 25/23 A3001 RMK AO2 SLP159 T02500228 10306 20244 403440233 56003

EXPIRED METARs :
  • 160453Z 36004KT 10SM CLR 25/23 A3001 RMK AO2 SLP159 T02500228
  • 160353Z 05003KT 10SM CLR 26/23 A3001 RMK AO2 SLP161 T02610228

TAF KBTR
Valid from the 16 at 06:00 until the 17 at 06:00 UTC


160520Z 1606/1706 05003KT P6SM SKC
FM161200 VRB03KT P6SM SKC
FM162200 13006KT P6SM FEW045 SCT200
FM170200 00000KT P6SM SKC
No reported NOTAMs for that airfield.



MET'MAP, your aeronautical weather chart ! - Copyright ORBIFLY December 2007 - Disclaimer

ORBIFLY MET'MAP TEAM :

Programming & Development : Alexandra Zaïnal
Concept & Development : Baudouin d'Aumeries
Co-Development & Prog : Marc-Olivier Méhu
Technical & hardware support : Manuel Goepfert

Contact : metmap@orbifly.com




SOURCES & CREDITS :

   NOAA       Earth
Advisory